turbotext.ru alexa rank chart, turbotext.ru alexa rank daily changes

turbotext.ru alexa rank chart, turbotext.ru alexa rank daily changes

turbotext.ru
Actual rank:
120 297

RANK HISTORY

Date Rank Diff
2018/05/24 120 297 -16 172
2018/05/23 136 469 +7 827
2018/05/22 128 642 -28 459
2018/05/21 157 101 +5 788
2018/05/20 151 313 -31 355
2018/05/19 182 668 +43 027
2018/05/18 139 641 +6 724
2018/05/17 132 917 +10 936
2018/05/16 121 981 +15 479
2018/05/15 106 502 -12 477
2018/05/14 118 979 +37 034
2018/05/13 81 945 -92 462
2018/05/12 174 407 +24 171
2018/05/11 150 236 +24 081
2018/05/10 126 155 -26 900
2018/05/09 153 055 +29 606
2018/05/08 123 449 +25 147
2018/05/07 98 302 +2 166
2018/05/06 96 136 -2 986
2018/05/05 99 122 -79 725
2018/05/04 178 847 +29 972
2018/05/03 148 875 -17 784
2018/05/02 166 659 +8 471
2018/05/01 158 188 -8 961
2018/04/30 167 149 +66 241
2018/04/29 100 908 -58 599
2018/04/28 159 507 +78 440
2018/04/27 81 067 -72 249
2018/04/26 153 316 +72 901
2018/04/25 80 415 +6 529
2018/04/24 73 886 -7 181
2018/04/23 81 067 -28 450
2018/04/22 109 517 -18 611
2018/04/21 128 128 -1 652
2018/04/20 129 780 -7 084
2018/04/19 136 864 -19 295
2018/04/18 156 159 +3 269
2018/04/17 152 890 +21 206
2018/04/16 131 684 +5 101
2018/04/15 126 583 +9 547
2018/04/14 117 036 -32 150
2018/04/13 149 186 +28 075
2018/04/12 121 111 -8 893
2018/04/11 130 004 -512
2018/04/10 130 516 -14 048
2018/04/09 144 564 +2 541
2018/04/08 142 023 +1 946
2018/04/07 140 077 +9 474
2018/04/06 130 603 +1 853
2018/04/05 128 750 -19 016
2018/04/04 147 766 +24 975
2018/04/03 122 791 +32 417
2018/04/02 90 374 -43 116
2018/04/01 133 490 -41 397
2018/03/31 174 887 -10 470
2018/03/30 185 357 -7 137
2018/03/29 192 494 +57
2018/03/28 192 437 +66 145
2018/03/27 126 292 -44 896
2018/03/26 171 188 +368
2018/03/25 170 820

WIDGET FOR YOUR SITE

DOMAINS WITH THE NEAREST RANK

Domain Rank
chudodej.ru 120 292
contestgirl.com 120 293
archambault.ca 120 294
gophotoz.com 120 295
familyporn.tv 120 296
turbotext.ru 120 297
hnb.hr 120 298
femmeactuelle-news.fr 120 299
pushplay.com 120 300
guruprediction.com 120 301
morpace.com 120 302

DOMAINS WITH THE NEAREST RANK BY TLD .ru

Domain Rank
obuv-tut2000.ru 120 236
razviwaika.ru 120 259
bellaestetica.ru 120 276
funlol.ru 120 282
chudodej.ru 120 292
turbotext.ru 120 297
alterainvest.ru 120 385
statusycitaty.ru 120 406
pgups.ru 120 432
zee-tv.ru 120 438
goppt.ru 120 439